createdAt,value
2018-06-28T00:00:17.357Z,1026.91
2018-06-28T00:00:42.939Z,1026.91
2018-06-28T00:01:08.526Z,1026.92
2018-06-28T00:01:34.097Z,1026.93
2018-06-28T00:01:59.649Z,1026.92
2018-06-28T00:02:25.233Z,1026.91
2018-06-28T00:02:50.816Z,1026.91
2018-06-28T00:03:16.397Z,1026.94
2018-06-28T00:03:41.971Z,1026.9
2018-06-28T00:04:07.531Z,1026.89
2018-06-28T00:04:33.099Z,1026.93
2018-06-28T00:04:58.657Z,1026.92
2018-06-28T00:05:24.236Z,1026.9
2018-06-28T00:05:49.835Z,1026.94
2018-06-28T00:06:15.384Z,1026.91
2018-06-28T00:06:41.043Z,1026.9
2018-06-28T00:07:06.603Z,1026.9
2018-06-28T00:07:32.191Z,1026.9
2018-06-28T00:07:57.775Z,1026.92
2018-06-28T00:08:23.315Z,1026.94
2018-06-28T00:08:48.910Z,1026.9
2018-06-28T00:09:14.497Z,1026.89
2018-06-28T00:09:40.069Z,1026.88
2018-06-28T00:10:05.626Z,1026.93
2018-06-28T00:10:31.207Z,1026.89
2018-06-28T00:10:56.788Z,1026.9
2018-06-28T00:11:22.334Z,1026.93
2018-06-28T00:11:47.907Z,1026.92
2018-06-28T00:12:13.449Z,1026.93
2018-06-28T00:12:39.016Z,1026.94
2018-06-28T00:13:04.530Z,1026.9
2018-06-28T00:13:30.106Z,1026.88
2018-06-28T00:13:55.674Z,1026.88
2018-06-28T00:14:21.229Z,1026.91
2018-06-28T00:14:46.829Z,1026.91
2018-06-28T00:15:12.417Z,1026.89
2018-06-28T00:15:37.993Z,1026.89
2018-06-28T00:16:03.575Z,1026.9
2018-06-28T00:16:29.129Z,1026.91
2018-06-28T00:16:54.685Z,1026.92
2018-06-28T00:17:20.249Z,1026.88
2018-06-28T00:17:45.802Z,1026.91
2018-06-28T00:18:11.389Z,1026.91
2018-06-28T00:18:36.953Z,1026.92
2018-06-28T00:19:02.520Z,1026.96
2018-06-28T00:19:28.084Z,1026.96
2018-06-28T00:19:53.657Z,1026.93
2018-06-28T00:20:19.219Z,1026.95
2018-06-28T00:20:44.808Z,1026.94
2018-06-28T00:21:10.358Z,1026.92
2018-06-28T00:21:35.926Z,1026.91
2018-06-28T00:22:01.488Z,1026.93
2018-06-28T00:22:27.051Z,1026.94
2018-06-28T00:22:52.618Z,1026.92
2018-06-28T00:23:18.191Z,1026.91
2018-06-28T00:23:43.753Z,1026.92
2018-06-28T00:24:09.311Z,1026.89
2018-06-28T00:24:34.895Z,1026.94
2018-06-28T00:25:00.437Z,1026.87
2018-06-28T00:25:25.981Z,1026.93
2018-06-28T00:25:51.554Z,1026.91
2018-06-28T00:26:17.139Z,1026.92
2018-06-28T00:26:42.705Z,1026.9
2018-06-28T00:27:08.289Z,1026.91
2018-06-28T00:27:33.815Z,1026.93
2018-06-28T00:27:59.388Z,1026.87
2018-06-28T00:28:24.965Z,1026.91
2018-06-28T00:28:50.520Z,1026.91
2018-06-28T00:29:16.087Z,1026.87
2018-06-28T00:29:41.677Z,1026.9
2018-06-28T00:30:07.240Z,1026.89
2018-06-28T00:30:32.825Z,1026.92
2018-06-28T00:30:58.401Z,1026.89
2018-06-28T00:31:23.991Z,1026.95
2018-06-28T00:31:49.557Z,1026.95
2018-06-28T00:32:15.105Z,1026.9
2018-06-28T00:32:40.661Z,1026.93
2018-06-28T00:33:06.224Z,1026.91
2018-06-28T00:33:31.791Z,1026.92
2018-06-28T00:33:57.359Z,1026.92
2018-06-28T00:34:22.917Z,1026.91
2018-06-28T00:34:48.478Z,1026.94
2018-06-28T00:35:14.053Z,1026.88
2018-06-28T00:35:39.613Z,1026.89
2018-06-28T00:36:05.181Z,1026.87
2018-06-28T00:36:30.751Z,1026.89
2018-06-28T00:36:56.300Z,1026.9
2018-06-28T00:37:21.880Z,1026.93
2018-06-28T00:37:47.475Z,1026.89
2018-06-28T00:38:13.053Z,1026.9
2018-06-28T00:38:38.624Z,1026.86
2018-06-28T00:39:04.190Z,1026.88
2018-06-28T00:39:29.775Z,1026.91
2018-06-28T00:39:55.336Z,1026.86
2018-06-28T00:40:20.901Z,1026.88
2018-06-28T00:40:46.480Z,1026.91
2018-06-28T00:41:12.091Z,1026.88
2018-06-28T00:41:37.682Z,1026.92
2018-06-28T00:42:03.249Z,1026.87
2018-06-28T00:42:28.799Z,1026.88
2018-06-28T00:42:54.356Z,1026.91
2018-06-28T00:43:19.949Z,1026.89
2018-06-28T00:43:45.515Z,1026.89
2018-06-28T00:44:11.070Z,1026.89
2018-06-28T00:44:36.672Z,1026.83
2018-06-28T00:45:02.223Z,1026.85
2018-06-28T00:45:27.792Z,1026.85
2018-06-28T00:45:53.366Z,1026.88
2018-06-28T00:46:18.922Z,1026.88
2018-06-28T00:46:44.480Z,1026.86
2018-06-28T00:47:10.084Z,1026.85
2018-06-28T00:47:35.669Z,1026.89
2018-06-28T00:48:01.264Z,1026.88
2018-06-28T00:48:26.842Z,1026.88
2018-06-28T00:48:52.415Z,1026.89
2018-06-28T00:49:17.983Z,1026.85
2018-06-28T00:49:43.566Z,1026.86
2018-06-28T00:50:09.162Z,1026.88
2018-06-28T00:50:34.766Z,1026.82
2018-06-28T00:51:00.344Z,1026.88
2018-06-28T00:51:25.903Z,1026.86
2018-06-28T00:51:51.470Z,1026.85
2018-06-28T00:52:17.050Z,1026.89
2018-06-28T00:52:42.604Z,1026.81
2018-06-28T00:53:08.163Z,1026.88
2018-06-28T00:53:33.735Z,1026.83
2018-06-28T00:53:59.285Z,1026.8
2018-06-28T00:54:24.861Z,1026.85
2018-06-28T00:54:50.462Z,1026.84
2018-06-28T00:55:16.074Z,1026.88
2018-06-28T00:55:41.644Z,1026.88
2018-06-28T00:56:07.227Z,1026.85
2018-06-28T00:56:32.781Z,1026.84
2018-06-28T00:56:58.348Z,1026.89
2018-06-28T00:57:23.922Z,1026.88
2018-06-28T00:57:49.477Z,1026.86
2018-06-28T00:58:15.046Z,1026.84
2018-06-28T00:58:40.612Z,1026.91
2018-06-28T00:59:06.180Z,1026.89
2018-06-28T00:59:31.752Z,1026.86
2018-06-28T00:59:57.337Z,1026.88
2018-06-28T01:00:22.927Z,1026.88
2018-06-28T01:00:48.483Z,1026.9
2018-06-28T01:01:14.064Z,1026.88
2018-06-28T01:01:39.638Z,1026.85
2018-06-28T01:02:05.175Z,1026.85
2018-06-28T01:02:30.762Z,1026.87
2018-06-28T01:02:56.334Z,1026.89
2018-06-28T01:03:21.902Z,1026.86
2018-06-28T01:03:47.466Z,1026.83
2018-06-28T01:04:13.056Z,1026.87
2018-06-28T01:04:38.632Z,1026.87
2018-06-28T01:05:04.205Z,1026.87
2018-06-28T01:05:29.760Z,1026.87
2018-06-28T01:05:55.327Z,1026.85
2018-06-28T01:06:20.900Z,1026.86
2018-06-28T01:06:46.474Z,1026.82
2018-06-28T01:07:12.047Z,1026.8
2018-06-28T01:07:37.630Z,1026.83
2018-06-28T01:08:03.185Z,1026.85
2018-06-28T01:08:28.745Z,1026.84
2018-06-28T01:08:54.340Z,1026.82
2018-06-28T01:09:19.936Z,1026.87
2018-06-28T01:09:45.521Z,1026.82
2018-06-28T01:10:11.096Z,1026.85
2018-06-28T01:10:36.662Z,1026.83
2018-06-28T01:11:02.273Z,1026.86
2018-06-28T01:11:27.826Z,1026.83
2018-06-28T01:11:53.373Z,1026.79
2018-06-28T01:12:18.948Z,1026.81
2018-06-28T01:12:44.527Z,1026.84
2018-06-28T01:13:10.096Z,1026.85
2018-06-28T01:13:35.654Z,1026.85
2018-06-28T01:14:01.221Z,1026.84
2018-06-28T01:14:26.808Z,1026.83
2018-06-28T01:14:52.370Z,1026.83
2018-06-28T01:15:17.948Z,1026.82
2018-06-28T01:15:43.520Z,1026.77
2018-06-28T01:16:09.090Z,1026.77
2018-06-28T01:16:34.654Z,1026.81
2018-06-28T01:17:00.239Z,1026.75
2018-06-28T01:17:25.804Z,1026.76
2018-06-28T01:17:51.432Z,1026.8
2018-06-28T01:18:17.002Z,1026.78
2018-06-28T01:18:42.562Z,1026.78
2018-06-28T01:19:08.139Z,1026.73
2018-06-28T01:19:33.725Z,1026.76
2018-06-28T01:19:59.259Z,1026.78
2018-06-28T01:20:24.818Z,1026.74
2018-06-28T01:20:50.390Z,1026.7
2018-06-28T01:21:15.952Z,1026.74
2018-06-28T01:21:41.523Z,1026.71
2018-06-28T01:22:07.088Z,1026.74
2018-06-28T01:22:32.643Z,1026.71
2018-06-28T01:22:58.207Z,1026.73
2018-06-28T01:23:23.768Z,1026.72
2018-06-28T01:23:49.332Z,1026.75
2018-06-28T01:24:14.904Z,1026.72
2018-06-28T01:24:40.536Z,1026.76
2018-06-28T01:25:06.105Z,1026.69
2018-06-28T01:25:31.680Z,1026.72
2018-06-28T01:25:57.241Z,1026.76
2018-06-28T01:26:22.808Z,1026.73
2018-06-28T01:26:48.355Z,1026.73
2018-06-28T01:27:13.905Z,1026.75
2018-06-28T01:27:39.520Z,1026.71
2018-06-28T01:28:05.102Z,1026.74
2018-06-28T01:28:30.660Z,1026.68
2018-06-28T01:28:56.224Z,1026.69
2018-06-28T01:29:21.863Z,1026.73
2018-06-28T01:29:47.396Z,1026.69
2018-06-28T01:30:12.949Z,1026.72
2018-06-28T01:30:38.562Z,1026.69
2018-06-28T01:31:04.091Z,1026.74
2018-06-28T01:31:29.672Z,1026.77
2018-06-28T01:31:55.234Z,1026.72
2018-06-28T01:32:20.798Z,1026.73
2018-06-28T01:32:46.368Z,1026.72
2018-06-28T01:33:11.940Z,1026.72
2018-06-28T01:33:37.502Z,1026.73
2018-06-28T01:34:03.080Z,1026.71
2018-06-28T01:34:28.643Z,1026.73
2018-06-28T01:34:54.228Z,1026.74
2018-06-28T01:35:19.796Z,1026.71
2018-06-28T01:35:45.373Z,1026.72
2018-06-28T01:36:10.930Z,1026.72
2018-06-28T01:36:36.498Z,1026.72
2018-06-28T01:37:02.072Z,1026.71
2018-06-28T01:37:27.621Z,1026.73
2018-06-28T01:37:53.192Z,1026.72
2018-06-28T01:38:18.778Z,1026.77
2018-06-28T01:38:44.342Z,1026.76
2018-06-28T01:39:09.928Z,1026.78
2018-06-28T01:39:35.492Z,1026.77
2018-06-28T01:40:01.034Z,1026.79
2018-06-28T01:40:26.614Z,1026.76
2018-06-28T01:40:52.175Z,1026.78
2018-06-28T01:41:17.759Z,1026.77
2018-06-28T01:41:43.328Z,1026.77
2018-06-28T01:42:08.907Z,1026.78
2018-06-28T01:42:34.492Z,1026.77
2018-06-28T01:43:00.043Z,1026.8
2018-06-28T01:43:25.614Z,1026.77
2018-06-28T01:43:51.193Z,1026.77
2018-06-28T01:44:16.813Z,1026.77
2018-06-28T01:44:42.308Z,1026.77
2018-06-28T01:45:07.902Z,1026.78
2018-06-28T01:45:33.476Z,1026.75
2018-06-28T01:45:59.027Z,1026.8
2018-06-28T01:46:24.609Z,1026.78
2018-06-28T01:46:50.179Z,1026.76
2018-06-28T01:47:15.715Z,1026.72
2018-06-28T01:47:41.288Z,1026.79
2018-06-28T01:48:06.842Z,1026.79
2018-06-28T01:48:32.416Z,1026.79
2018-06-28T01:48:57.987Z,1026.74
2018-06-28T01:49:23.584Z,1026.73
2018-06-28T01:49:49.129Z,1026.76
2018-06-28T01:50:14.705Z,1026.75
2018-06-28T01:50:40.276Z,1026.72
2018-06-28T01:51:05.848Z,1026.73
2018-06-28T01:51:31.423Z,1026.76
2018-06-28T01:51:56.968Z,1026.73
2018-06-28T01:52:22.527Z,1026.78
2018-06-28T01:52:48.079Z,1026.76
2018-06-28T01:53:13.660Z,1026.76
2018-06-28T01:53:39.216Z,1026.76
2018-06-28T01:54:04.808Z,1026.73
2018-06-28T01:54:30.378Z,1026.74
2018-06-28T01:54:55.965Z,1026.78
2018-06-28T01:55:21.533Z,1026.78
2018-06-28T01:55:47.093Z,1026.79
2018-06-28T01:56:12.677Z,1026.8
2018-06-28T01:56:38.228Z,1026.79
2018-06-28T01:57:03.781Z,1026.79
2018-06-28T01:57:29.329Z,1026.75
2018-06-28T01:57:54.893Z,1026.8
2018-06-28T01:58:20.509Z,1026.8
2018-06-28T01:58:46.088Z,1026.78
2018-06-28T01:59:11.648Z,1026.79
2018-06-28T01:59:37.210Z,1026.77
2018-06-28T02:00:02.756Z,1026.76
2018-06-28T02:00:28.314Z,1026.77
2018-06-28T02:00:53.882Z,1026.79
2018-06-28T02:01:19.458Z,1026.76
2018-06-28T02:01:45.018Z,1026.8
2018-06-28T02:02:10.598Z,1026.78
2018-06-28T02:02:36.197Z,1026.8
2018-06-28T02:03:01.747Z,1026.74
2018-06-28T02:03:27.303Z,1026.79
2018-06-28T02:03:52.870Z,1026.76
2018-06-28T02:04:18.431Z,1026.78
2018-06-28T02:04:43.983Z,1026.76
2018-06-28T02:05:09.554Z,1026.79
2018-06-28T02:05:35.125Z,1026.78
2018-06-28T02:06:00.680Z,1026.79
2018-06-28T02:06:26.247Z,1026.75
2018-06-28T02:06:51.828Z,1026.79
2018-06-28T02:07:17.394Z,1026.8
2018-06-28T02:07:42.993Z,1026.77
2018-06-28T02:08:08.560Z,1026.78
2018-06-28T02:08:34.150Z,1026.78
2018-06-28T02:08:59.715Z,1026.77
2018-06-28T02:09:25.292Z,1026.77
2018-06-28T02:09:50.862Z,1026.79
2018-06-28T02:10:16.456Z,1026.76
2018-06-28T02:10:42.000Z,1026.76
2018-06-28T02:11:07.581Z,1026.78
2018-06-28T02:11:33.152Z,1026.77
2018-06-28T02:11:58.740Z,1026.82
2018-06-28T02:12:24.314Z,1026.77
2018-06-28T02:12:49.884Z,1026.79
2018-06-28T02:13:15.451Z,1026.83
2018-06-28T02:13:41.025Z,1026.78
2018-06-28T02:14:06.583Z,1026.84
2018-06-28T02:14:32.128Z,1026.83
2018-06-28T02:14:57.690Z,1026.88
2018-06-28T02:15:23.266Z,1026.84
2018-06-28T02:15:48.869Z,1026.88
2018-06-28T02:16:14.439Z,1026.8
2018-06-28T02:16:40.004Z,1026.84
2018-06-28T02:17:05.590Z,1026.85
2018-06-28T02:17:31.140Z,1026.83
2018-06-28T02:17:56.720Z,1026.86
2018-06-28T02:18:22.308Z,1026.81
2018-06-28T02:18:47.867Z,1026.82
2018-06-28T02:19:13.465Z,1026.83
2018-06-28T02:19:39.045Z,1026.83
2018-06-28T02:20:04.678Z,1026.82
2018-06-28T02:20:30.194Z,1026.85
2018-06-28T02:20:55.779Z,1026.85
2018-06-28T02:21:21.331Z,1026.81
2018-06-28T02:21:46.943Z,1026.83
2018-06-28T02:22:12.492Z,1026.88
2018-06-28T02:22:38.062Z,1026.84
2018-06-28T02:23:03.614Z,1026.86
2018-06-28T02:23:29.160Z,1026.87
2018-06-28T02:23:54.780Z,1026.84
2018-06-28T02:24:20.285Z,1026.82
2018-06-28T02:24:45.868Z,1026.84
2018-06-28T02:25:11.392Z,1026.84
2018-06-28T02:25:36.968Z,1026.88
2018-06-28T02:26:02.569Z,1026.89
2018-06-28T02:26:28.166Z,1026.81
2018-06-28T02:26:53.740Z,1026.83
2018-06-28T02:27:19.335Z,1026.86
2018-06-28T02:27:44.909Z,1026.81
2018-06-28T02:28:10.510Z,1026.82
2018-06-28T02:28:36.059Z,1026.83
2018-06-28T02:29:01.656Z,1026.83
2018-06-28T02:29:27.235Z,1026.86
2018-06-28T02:29:52.802Z,1026.86
2018-06-28T02:30:18.364Z,1026.82
2018-06-28T02:30:43.939Z,1026.81
2018-06-28T02:31:09.502Z,1026.83
2018-06-28T02:31:35.057Z,1026.81
2018-06-28T02:32:00.657Z,1026.8
2018-06-28T02:32:26.253Z,1026.8
2018-06-28T02:32:51.836Z,1026.79
2018-06-28T02:33:17.420Z,1026.79
2018-06-28T02:33:43.072Z,1026.8
2018-06-28T02:34:08.639Z,1026.8
2018-06-28T02:34:34.187Z,1026.75
2018-06-28T02:34:59.780Z,1026.77
2018-06-28T02:35:25.376Z,1026.75
2018-06-28T02:35:50.944Z,1026.77
2018-06-28T02:36:16.520Z,1026.74
2018-06-28T02:36:42.068Z,1026.76
2018-06-28T02:37:07.635Z,1026.73
2018-06-28T02:37:33.204Z,1026.75
2018-06-28T02:37:58.752Z,1026.77
2018-06-28T02:38:24.352Z,1026.74
2018-06-28T02:38:49.942Z,1026.71
2018-06-28T02:39:15.499Z,1026.74
2018-06-28T02:39:41.108Z,1026.73
2018-06-28T02:40:06.653Z,1026.7
2018-06-28T02:40:32.282Z,1026.71
2018-06-28T02:40:57.785Z,1026.77
2018-06-28T02:41:23.332Z,1026.72
2018-06-28T02:41:48.910Z,1026.75
2018-06-28T02:42:14.470Z,1026.73
2018-06-28T02:42:40.035Z,1026.76
2018-06-28T02:43:05.586Z,1026.76
2018-06-28T02:43:31.152Z,1026.72
2018-06-28T02:43:56.728Z,1026.69
2018-06-28T02:44:22.295Z,1026.72
2018-06-28T02:44:47.859Z,1026.73
2018-06-28T02:45:13.422Z,1026.74
2018-06-28T02:45:38.984Z,1026.73
2018-06-28T02:46:04.550Z,1026.69
2018-06-28T02:46:30.148Z,1026.69
2018-06-28T02:46:55.753Z,1026.69
2018-06-28T02:47:21.326Z,1026.66
2018-06-28T02:47:46.925Z,1026.69
2018-06-28T02:48:12.496Z,1026.69
2018-06-28T02:48:38.100Z,1026.67
2018-06-28T02:49:03.696Z,1026.66
2018-06-28T02:49:29.254Z,1026.68
2018-06-28T02:49:54.851Z,1026.68
2018-06-28T02:50:20.452Z,1026.68
2018-06-28T02:50:46.046Z,1026.7
2018-06-28T02:51:11.616Z,1026.72
2018-06-28T02:51:37.165Z,1026.71
2018-06-28T02:52:02.732Z,1026.7
2018-06-28T02:52:28.317Z,1026.7
2018-06-28T02:52:53.875Z,1026.71
2018-06-28T02:53:19.455Z,1026.71
2018-06-28T02:53:45.007Z,1026.71
2018-06-28T02:54:10.576Z,1026.67
2018-06-28T02:54:36.145Z,1026.69
2018-06-28T02:55:01.774Z,1026.72
2018-06-28T02:55:27.324Z,1026.71
2018-06-28T02:55:52.890Z,1026.69
2018-06-28T02:56:18.459Z,1026.75
2018-06-28T02:56:44.036Z,1026.74
2018-06-28T02:57:09.612Z,1026.75
2018-06-28T02:57:35.214Z,1026.7
2018-06-28T02:58:00.793Z,1026.74
2018-06-28T02:58:26.343Z,1026.75
2018-06-28T02:58:51.917Z,1026.74
2018-06-28T02:59:17.447Z,1026.74
2018-06-28T02:59:43.014Z,1026.72
2018-06-28T03:00:08.586Z,1026.75
2018-06-28T03:00:34.154Z,1026.72
2018-06-28T03:00:59.736Z,1026.76
2018-06-28T03:02:13.617Z,1026.75
2018-06-28T03:02:39.189Z,1026.71
2018-06-28T03:03:04.743Z,1026.77
2018-06-28T03:03:30.301Z,1026.7
2018-06-28T03:03:55.865Z,1026.73
2018-06-28T03:04:21.425Z,1026.77
2018-06-28T03:04:46.986Z,1026.75
2018-06-28T03:05:12.564Z,1026.77
2018-06-28T03:05:38.133Z,1026.75
2018-06-28T03:06:03.696Z,1026.72
2018-06-28T03:06:29.285Z,1026.76
2018-06-28T03:06:54.842Z,1026.75
2018-06-28T03:07:20.440Z,1026.74
2018-06-28T03:07:46.038Z,1026.75
2018-06-28T03:08:11.612Z,1026.76
2018-06-28T03:08:37.158Z,1026.77
2018-06-28T03:09:02.742Z,1026.75
2018-06-28T03:09:28.282Z,1026.8
2018-06-28T03:09:53.861Z,1026.76
2018-06-28T03:10:19.433Z,1026.79
2018-06-28T03:10:45.018Z,1026.77
2018-06-28T03:11:10.582Z,1026.76
2018-06-28T03:11:36.142Z,1026.74
2018-06-28T03:12:01.729Z,1026.77
2018-06-28T03:12:27.273Z,1026.79
2018-06-28T03:12:52.826Z,1026.82
2018-06-28T03:13:18.428Z,1026.75
2018-06-28T03:13:44.002Z,1026.77
2018-06-28T03:14:09.632Z,1026.75
2018-06-28T03:14:35.166Z,1026.78
2018-06-28T03:15:00.736Z,1026.77
2018-06-28T03:15:26.288Z,1026.82
2018-06-28T03:15:51.834Z,1026.83
2018-06-28T03:16:17.446Z,1026.81
2018-06-28T03:16:42.974Z,1026.8
2018-06-28T03:17:08.544Z,1026.76
2018-06-28T03:17:34.131Z,1026.82
2018-06-28T03:17:59.679Z,1026.85
2018-06-28T03:18:25.262Z,1026.81
2018-06-28T03:18:50.822Z,1026.83
2018-06-28T03:19:16.405Z,1026.82
2018-06-28T03:19:41.960Z,1026.83
2018-06-28T03:20:07.548Z,1026.81
2018-06-28T03:20:33.124Z,1026.8
2018-06-28T03:20:58.723Z,1026.84
2018-06-28T03:21:24.280Z,1026.83
2018-06-28T03:21:49.858Z,1026.82
2018-06-28T03:22:15.421Z,1026.8
2018-06-28T03:22:40.977Z,1026.82
2018-06-28T03:23:06.555Z,1026.81
2018-06-28T03:23:32.140Z,1026.85
2018-06-28T03:23:57.723Z,1026.87
2018-06-28T03:24:23.295Z,1026.85
2018-06-28T03:24:48.854Z,1026.84
2018-06-28T03:25:14.430Z,1026.83
2018-06-28T03:25:39.990Z,1026.82
2018-06-28T03:26:05.547Z,1026.82
2018-06-28T03:26:31.126Z,1026.82
2018-06-28T03:26:56.711Z,1026.82
2018-06-28T03:27:22.284Z,1026.81
2018-06-28T03:27:47.888Z,1026.81
2018-06-28T03:28:13.442Z,1026.8
2018-06-28T03:28:39.012Z,1026.83
2018-06-28T03:29:04.553Z,1026.8
2018-06-28T03:29:30.118Z,1026.83
2018-06-28T03:29:55.714Z,1026.84
2018-06-28T03:30:21.267Z,1026.79
2018-06-28T03:30:46.850Z,1026.78
2018-06-28T03:31:12.407Z,1026.81
2018-06-28T03:31:37.968Z,1026.82
2018-06-28T03:32:03.546Z,1026.83
2018-06-28T03:32:29.114Z,1026.81
2018-06-28T03:32:54.682Z,1026.78
2018-06-28T03:33:20.294Z,1026.79
2018-06-28T03:33:45.829Z,1026.79
2018-06-28T03:34:11.431Z,1026.76
2018-06-28T03:34:37.002Z,1026.79
2018-06-28T03:35:02.591Z,1026.83
2018-06-28T03:35:28.151Z,1026.83
2018-06-28T03:35:53.724Z,1026.79
2018-06-28T03:36:19.303Z,1026.81
2018-06-28T03:36:44.873Z,1026.82
2018-06-28T03:37:10.430Z,1026.81
2018-06-28T03:37:36.055Z,1026.82
2018-06-28T03:38:01.665Z,1026.82
2018-06-28T03:38:27.182Z,1026.83
2018-06-28T03:38:52.735Z,1026.87
2018-06-28T03:39:18.313Z,1026.85
2018-06-28T03:39:43.870Z,1026.81
2018-06-28T03:40:09.444Z,1026.82
2018-06-28T03:40:35.023Z,1026.8
2018-06-28T03:41:00.617Z,1026.81
2018-06-28T03:41:26.187Z,1026.83
2018-06-28T03:41:51.807Z,1026.83
2018-06-28T03:42:17.373Z,1026.79
2018-06-28T03:42:42.925Z,1026.84
2018-06-28T03:43:08.495Z,1026.81
2018-06-28T03:43:34.093Z,1026.83
2018-06-28T03:43:59.676Z,1026.84
2018-06-28T03:44:25.235Z,1026.84
2018-06-28T03:44:50.818Z,1026.81
2018-06-28T03:45:16.393Z,1026.82
2018-06-28T03:45:41.972Z,1026.81
2018-06-28T03:46:07.570Z,1026.84
2018-06-28T03:46:33.117Z,1026.85
2018-06-28T03:46:58.707Z,1026.88
2018-06-28T03:47:24.293Z,1026.88
2018-06-28T03:47:49.866Z,1026.86
2018-06-28T03:48:15.417Z,1026.83
2018-06-28T03:48:41.018Z,1026.87
2018-06-28T03:49:06.600Z,1026.85
2018-06-28T03:49:32.159Z,1026.85
2018-06-28T03:49:57.719Z,1026.85
2018-06-28T03:50:23.287Z,1026.83
2018-06-28T03:50:48.861Z,1026.83
2018-06-28T03:51:14.431Z,1026.84
2018-06-28T03:51:40.006Z,1026.82
2018-06-28T03:52:05.594Z,1026.82
2018-06-28T03:52:31.135Z,1026.86
2018-06-28T03:52:56.693Z,1026.8
2018-06-28T03:53:22.273Z,1026.85
2018-06-28T03:53:47.821Z,1026.86
2018-06-28T03:54:13.397Z,1026.85
2018-06-28T03:54:38.961Z,1026.82
2018-06-28T03:55:04.521Z,1026.83
2018-06-28T03:55:30.093Z,1026.82
2018-06-28T03:55:55.661Z,1026.82
2018-06-28T03:56:21.223Z,1026.84
2018-06-28T03:56:46.817Z,1026.85
2018-06-28T03:57:12.360Z,1026.86
2018-06-28T03:57:37.918Z,1026.86
2018-06-28T03:58:03.489Z,1026.9
2018-06-28T03:58:29.100Z,1026.89
2018-06-28T03:58:54.666Z,1026.95
2018-06-28T03:59:20.245Z,1026.93
2018-06-28T03:59:45.842Z,1026.91
2018-06-28T04:00:11.414Z,1026.92
2018-06-28T04:00:36.980Z,1026.89
2018-06-28T04:01:02.575Z,1026.91
2018-06-28T04:01:28.123Z,1026.95
2018-06-28T04:01:53.685Z,1026.96
2018-06-28T04:02:19.220Z,1026.95
2018-06-28T04:02:44.802Z,1026.96
2018-06-28T04:03:10.380Z,1026.96
2018-06-28T04:03:35.932Z,1027
2018-06-28T04:04:01.507Z,1027
2018-06-28T04:04:27.106Z,1026.99
2018-06-28T04:04:52.688Z,1027.01
2018-06-28T04:05:18.224Z,1026.98
2018-06-28T04:05:43.796Z,1026.98
2018-06-28T04:06:09.367Z,1026.99
2018-06-28T04:06:35.011Z,1026.95
2018-06-28T04:07:00.523Z,1026.97
2018-06-28T04:07:26.098Z,1027
2018-06-28T04:07:51.692Z,1026.98
2018-06-28T04:08:17.267Z,1026.96
2018-06-28T04:08:42.879Z,1026.96
2018-06-28T04:09:08.447Z,1026.96
2018-06-28T04:09:34.015Z,1026.95
2018-06-28T04:09:59.581Z,1026.99
2018-06-28T04:10:25.157Z,1026.97
2018-06-28T04:10:50.711Z,1026.99
2018-06-28T04:11:16.284Z,1027
2018-06-28T04:11:41.821Z,1026.99
2018-06-28T04:12:07.389Z,1027.03
2018-06-28T04:12:32.971Z,1027.06
2018-06-28T04:12:58.573Z,1027.02
2018-06-28T04:13:24.149Z,1027.02
2018-06-28T04:13:49.709Z,1027.03
2018-06-28T04:14:15.291Z,1027.06
2018-06-28T04:14:40.902Z,1027.05
2018-06-28T04:15:06.471Z,1027.05
2018-06-28T04:15:32.042Z,1027.03
2018-06-28T04:15:57.592Z,1027.07
2018-06-28T04:16:23.143Z,1027.04
2018-06-28T04:16:48.800Z,1027.07
2018-06-28T04:17:14.263Z,1027.03
2018-06-28T04:17:39.812Z,1027.02
2018-06-28T04:18:05.396Z,1027.07
2018-06-28T04:18:30.971Z,1027.08
2018-06-28T04:18:56.521Z,1027.05
2018-06-28T04:19:22.066Z,1027.06
2018-06-28T04:19:47.641Z,1027.04
2018-06-28T04:20:13.193Z,1027.05
2018-06-28T04:20:38.781Z,1027.05
2018-06-28T04:21:04.349Z,1027.05
2018-06-28T04:21:29.957Z,1027.03
2018-06-28T04:21:55.531Z,1027.01
2018-06-28T04:22:21.099Z,1027.01
2018-06-28T04:22:46.659Z,1027.01
2018-06-28T04:23:12.203Z,1026.99
2018-06-28T04:23:37.774Z,1027.02
2018-06-28T04:24:03.351Z,1026.99
2018-06-28T04:24:28.912Z,1026.99
2018-06-28T04:24:54.461Z,1027.02
2018-06-28T04:25:20.050Z,1027.03
2018-06-28T04:25:45.625Z,1027.02
2018-06-28T04:26:11.186Z,1027.01
2018-06-28T04:26:36.771Z,1027.03
2018-06-28T04:27:02.331Z,1027.03
2018-06-28T04:27:27.968Z,1027.03
2018-06-28T04:27:53.471Z,1027.03
2018-06-28T04:28:19.035Z,1027.01
2018-06-28T04:28:44.597Z,1027.01
2018-06-28T04:29:10.184Z,1027.02
2018-06-28T04:29:35.776Z,1027.04
2018-06-28T04:30:01.354Z,1026.99
2018-06-28T04:30:26.951Z,1026.98
2018-06-28T04:30:52.521Z,1027.02
2018-06-28T04:31:18.079Z,1027.01
2018-06-28T04:31:43.646Z,1027.01
2018-06-28T04:32:09.211Z,1027.01
2018-06-28T04:32:34.788Z,1027.02
2018-06-28T04:33:00.337Z,1027.02
2018-06-28T04:33:25.945Z,1027.01
2018-06-28T04:33:51.519Z,1027
2018-06-28T04:34:17.084Z,1026.99
2018-06-28T04:34:42.665Z,1027
2018-06-28T04:35:08.254Z,1027.02
2018-06-28T04:35:33.841Z,1027.01
2018-06-28T04:35:59.425Z,1027.01
2018-06-28T04:36:24.981Z,1027
2018-06-28T04:36:50.549Z,1027.01
2018-06-28T04:37:16.141Z,1027
2018-06-28T04:37:41.683Z,1027
2018-06-28T04:38:07.253Z,1026.98
2018-06-28T04:38:32.820Z,1026.99
2018-06-28T04:38:58.363Z,1026.99
2018-06-28T04:39:23.946Z,1026.95
2018-06-28T04:39:49.526Z,1027.01
2018-06-28T04:40:15.097Z,1027.01
2018-06-28T04:40:40.662Z,1026.98
2018-06-28T04:41:06.363Z,1026.99
2018-06-28T04:41:31.805Z,1026.99
2018-06-28T04:41:57.359Z,1026.98
2018-06-28T04:42:22.932Z,1026.96
2018-06-28T04:42:48.539Z,1026.99
2018-06-28T04:43:14.091Z,1026.97
2018-06-28T04:43:39.675Z,1026.98
2018-06-28T04:44:05.257Z,1027.01
2018-06-28T04:44:30.829Z,1027.02
2018-06-28T04:44:56.400Z,1027.01
2018-06-28T04:45:21.961Z,1027.01
2018-06-28T04:45:47.535Z,1027.03
2018-06-28T04:46:13.107Z,1027.03
2018-06-28T04:46:38.665Z,1026.99
2018-06-28T04:47:04.239Z,1027
2018-06-28T04:47:29.810Z,1027.01
2018-06-28T04:47:55.381Z,1027.04
2018-06-28T04:48:20.967Z,1026.98
2018-06-28T04:48:46.538Z,1026.97
2018-06-28T04:49:12.104Z,1027
2018-06-28T04:49:37.657Z,1026.99
2018-06-28T04:50:03.227Z,1026.97
2018-06-28T04:50:28.811Z,1026.98
2018-06-28T04:50:54.365Z,1026.96
2018-06-28T04:51:19.944Z,1026.98
2018-06-28T04:51:45.535Z,1026.98
2018-06-28T04:52:11.107Z,1026.97
2018-06-28T04:52:36.674Z,1027.02
2018-06-28T04:53:02.243Z,1026.98
2018-06-28T04:53:27.798Z,1026.97
2018-06-28T04:53:53.378Z,1026.98
2018-06-28T04:54:18.928Z,1026.99
2018-06-28T04:54:44.497Z,1026.99
2018-06-28T04:55:10.080Z,1026.98
2018-06-28T04:55:35.655Z,1027.01
2018-06-28T04:56:01.214Z,1026.99
2018-06-28T04:56:26.775Z,1026.98
2018-06-28T04:56:52.352Z,1026.98
2018-06-28T04:57:17.917Z,1027.01
2018-06-28T04:57:43.514Z,1026.99
2018-06-28T04:58:09.104Z,1026.99
2018-06-28T04:58:34.659Z,1026.99
2018-06-28T04:59:00.227Z,1026.96
2018-06-28T04:59:25.799Z,1026.96
2018-06-28T04:59:51.373Z,1026.98
2018-06-28T05:00:16.945Z,1026.98
2018-06-28T05:00:42.512Z,1026.98
2018-06-28T05:01:08.111Z,1026.94
2018-06-28T05:01:33.694Z,1026.97
2018-06-28T05:01:59.259Z,1027
2018-06-28T05:02:24.837Z,1027
2018-06-28T05:02:50.396Z,1026.98
2018-06-28T05:03:15.987Z,1026.99
2018-06-28T05:03:41.557Z,1026.99
2018-06-28T05:04:07.113Z,1026.98
2018-06-28T05:04:32.695Z,1026.96
2018-06-28T05:04:58.256Z,1026.94
2018-06-28T05:05:23.854Z,1026.96
2018-06-28T05:05:49.425Z,1026.97
2018-06-28T05:06:14.996Z,1026.97
2018-06-28T05:06:40.579Z,1026.99
2018-06-28T05:07:06.148Z,1027
2018-06-28T05:07:31.705Z,1026.99
2018-06-28T05:07:57.253Z,1026.98
2018-06-28T05:08:22.824Z,1026.98
2018-06-28T05:08:48.403Z,1026.97
2018-06-28T05:09:14.003Z,1026.94
2018-06-28T05:09:39.641Z,1026.95
2018-06-28T05:10:05.226Z,1026.95
2018-06-28T05:10:30.855Z,1026.93
2018-06-28T05:10:56.416Z,1026.92
2018-06-28T05:11:21.964Z,1026.89